メインページ
METAR-TAF:

METAR-TAF

空港 :

レゾリュート, ヌナブト準州, カナダ

緯度: 74-43N, 経度: 094-59W, 海抜: 67m

現時点の気象観測

当レポートは1時間35分前の21:00(UTC)に作成
西の風 10kt
気温 1°C
湿度 93%
気圧 1000 hPa
視程: 1.2km
高度600ftの曇り
小霧雨, 靄

METAR: CYRB 262100Z 28010KT 3/4SM R35/3500V5500FT/D -DZ BR OVC006 01/00 A2952 RMK FG4ST4 VIS VRB 1/2-1 SLP005

時間: 17:35 (22:35 UTC)

予報

当レポートは2時間46分前の19:49(UTC)に作成
予報は26日の 19時(UTC)から 27日の 18時(UTC)まで有効
北西の風 10kt
視程: 9.7km
高度600ftの曇り
小霧雨, 靄
26日の 19時(UTC)から 27日の 09時(UTC)まで一時的に
視程: 0.8km
高度200ftの曇り
小雨, 霧
27日の 04時(UTC)から 27日の 06時(UTC)まで徐々に
の風 7kt
27日の 0900時(UTC)から
の風 7kt
視程: 0.8km
高度200ftの曇り
小霧雨, 霧
27日の 1500時(UTC)から
北東の風 8kt
視程: 3.2km
高度500ftの曇り
小霧雨, 靄

TAF: CYRB 261949Z 2619/2718 32010KT 6SM -DZ BR OVC006 TEMPO 2619/2709 1/2SM -RA FG OVC002 BECMG 2704/2706 09007KT FM270900 09007KT 1/2SM -DZ FG OVC002 FM271500 05008KT 2SM -DZ BR OVC005 RMK NXT FCST BY 270000Z

4,000以上の空港の気象観測と天気予報(METAR報とTAF報)

利用可能な観測所は地図上に黄色い丸と赤い丸で示す。

丸の上にカーソルを重ねると観測所名を参照できる。

次にクリックすると気象観測と天気予報を参照できる。

マップの切り替え:黒色「×」印の緑ボタンをクリックして拡大、「-」印の緑ボタンをクリックして縮小、緑色の三角印をクリックして隣りの地図に切り替え


METAR-TAF: